Time;durP1;ratioP1;P1;durP2;ratioP2;P2;SDS_P1;SDS_P2;PMS_P1;PMS_P2;Temp;Humidity;BMP_temperature;BMP_pressure;BME280_temperature;BME280_humidity;BME280_pressure;Samples;Min_cycle;Max_cycle;Signal;HPM_P1;HPM_P2
2024/03/29 00:00:39;;;;;;;0.10;0.10;;;;;;;-139.19;100.00;56970.53;5074924;28;20028;-62
2024/03/29 00:03:05;;;;;;;0.10;0.10;;;;;;;-139.19;100.00;56970.53;5075210;28;20029;-62
2024/03/29 00:05:31;;;;;;;0.10;0.10;;;;;;;-139.19;100.00;56970.53;5070451;28;20040;-62
2024/03/29 00:07:56;;;;;;;0.00;0.00;;;;;;;-139.19;100.00;56970.53;5075120;28;20399;-62
2024/03/29 00:10:21;;;;;;;0.00;0.00;;;;;;;-139.19;100.00;56970.53;5075135;28;20052;-62
2024/03/29 00:12:47;;;;;;;0.17;0.17;;;;;;;-139.19;100.00;56970.53;5074739;28;20037;-62
2024/03/29 00:15:12;;;;;;;0.20;0.20;;;;;;;-139.19;100.00;56970.53;5075305;28;20032;-62
2024/03/29 00:17:37;;;;;;;0.08;0.08;;;;;;;-139.19;100.00;56970.53;5075033;28;20419;-62
2024/03/29 00:20:05;;;;;;;0.03;0.03;;;;;;;-139.19;100.00;56970.53;5072255;28;20464;-62
2024/03/29 00:22:31;;;;;;;0.00;0.00;;;;;;;-139.19;100.00;56970.53;5049032;28;20025;-62
2024/03/29 00:24:56;;;;;;;0.10;0.10;;;;;;;-139.19;100.00;56970.53;5056579;28;20102;-62
2024/03/29 00:27:25;;;;;;;3.20;1.20;;;;;;;-139.19;100.00;56970.53;5064661;28;20036;-62
2024/03/29 00:29:52;;;;;;;0.00;0.00;;;;;;;-139.19;100.00;56970.53;5074495;28;20031;-62
2024/03/29 00:32:24;;;;;;;0.00;0.00;;;;;;;-139.19;100.00;56970.53;5074972;28;20060;-62
2024/03/29 00:34:50;;;;;;;0.10;0.10;;;;;;;-139.19;100.00;56970.53;5052176;28;20025;-62
2024/03/29 00:37:16;;;;;;;0.00;0.00;;;;;;;-139.19;100.00;56970.53;5055143;28;20029;-62
2024/03/29 00:39:44;;;;;;;0.08;0.08;;;;;;;-139.19;100.00;56970.53;5053698;28;20151;-62
2024/03/29 00:42:12;;;;;;;0.10;0.10;;;;;;;-139.19;100.00;56970.53;5054960;28;20037;-62
2024/03/29 00:44:38;;;;;;;0.10;0.10;;;;;;;-139.19;100.00;56970.53;5054935;28;20061;-62
2024/03/29 00:47:07;;;;;;;0.00;0.00;;;;;;;-139.19;100.00;56970.53;5046773;28;20057;-62
2024/03/29 00:49:33;;;;;;;0.20;0.20;;;;;;;-139.19;100.00;56970.53;5055157;28;20052;-62
2024/03/29 00:51:59;;;;;;;0.43;0.43;;;;;;;-139.19;100.00;56970.53;5055088;28;20039;-62
2024/03/29 00:54:25;;;;;;;0.20;0.17;;;;;;;-139.19;100.00;56970.53;5053296;28;20473;-64
2024/03/29 00:56:50;;;;;;;0.10;0.10;;;;;;;-139.19;100.00;56970.53;5044873;28;20120;-64
2024/03/29 00:59:16;;;;;;;0.70;0.40;;;;;;;-139.19;100.00;56970.53;5034245;28;20099;-64
2024/03/29 01:01:41;;;;;;;0.20;0.20;;;;;;;-139.19;100.00;56970.53;5033861;28;20044;-64
2024/03/29 01:04:07;;;;;;;0.00;0.00;;;;;;;-139.19;100.00;56970.53;5034271;28;20026;-65
2024/03/29 01:06:32;;;;;;;0.05;0.05;;;;;;;-139.19;100.00;56970.53;5032347;28;20032;-64
2024/03/29 01:08:57;;;;;;;0.10;0.10;;;;;;;-139.19;100.00;56970.53;5034253;28;20025;-64
2024/03/29 01:11:23;;;;;;;1.65;0.75;;;;;;;-139.19;100.00;56970.53;5019682;28;20501;-64
2024/03/29 01:13:48;;;;;;;0.00;0.00;;;;;;;-139.19;100.00;56970.53;5014701;28;20026;-64
2024/03/29 01:16:14;;;;;;;0.10;0.10;;;;;;;-139.19;100.00;56970.53;5014845;28;20105;-64
2024/03/29 01:18:41;;;;;;;0.00;0.00;;;;;;;-139.19;100.00;56970.53;5014617;28;20026;-64
2024/03/29 01:21:06;;;;;;;0.10;0.10;;;;;;;-139.19;100.00;56970.53;5014448;28;20032;-65
2024/03/29 01:23:32;;;;;;;0.00;0.00;;;;;;;-139.19;100.00;56970.53;5019064;28;20112;-64
2024/03/29 01:25:57;;;;;;;0.00;0.00;;;;;;;-139.19;100.00;56970.53;5033571;28;20049;-65
2024/03/29 01:28:22;;;;;;;0.10;0.10;;;;;;;-139.19;100.00;56970.53;5033866;28;20033;-65
2024/03/29 01:30:54;;;;;;;0.00;0.00;;;;;;;-139.19;100.00;56970.53;5030923;28;20030;-64
2024/03/29 01:33:20;;;;;;;;;;;;;;;-139.19;100.00;56970.53;5014768;28;20032;-65
2024/03/29 01:35:45;;;;;;;0.00;0.00;;;;;;;-139.19;100.00;56970.53;5014868;28;20023;-65
2024/03/29 01:38:11;;;;;;;0.08;0.08;;;;;;;-139.19;100.00;56970.53;5014327;28;20022;-65
2024/03/29 01:40:36;;;;;;;0.10;0.10;;;;;;;-139.19;100.00;56970.53;5028365;28;20038;-65
2024/03/29 01:43:02;;;;;;;0.00;0.00;;;;;;;-139.19;100.00;56970.53;5033323;28;20029;-64
2024/03/29 01:45:28;;;;;;;0.00;0.00;;;;;;;-139.19;100.00;56970.53;5033343;28;20386;-65
2024/03/29 01:47:54;;;;;;;0.00;0.00;;;;;;;-139.19;100.00;56970.53;5023062;28;20112;-65
2024/03/29 01:50:20;;;;;;;0.00;0.00;;;;;;;-139.19;100.00;56970.53;5015173;28;20443;-65
2024/03/29 01:52:46;;;;;;;0.00;0.00;;;;;;;-139.19;100.00;56970.53;5033226;28;20448;-65
2024/03/29 01:55:11;;;;;;;0.00;0.00;;;;;;;-139.19;100.00;56970.53;5032929;28;20095;-65
2024/03/29 01:57:37;;;;;;;0.10;0.10;;;;;;;-139.19;100.00;56970.53;5034012;28;20463;-64
2024/03/29 02:00:05;;;;;;;0.03;0.03;;;;;;;-139.19;100.00;56970.53;5034754;28;20032;-64
2024/03/29 02:02:32;;;;;;;0.00;0.00;;;;;;;-139.19;100.00;56970.53;5033823;28;20037;-64
2024/03/29 02:04:57;;;;;;;0.10;0.10;;;;;;;-139.19;100.00;56970.53;5029715;28;20032;-64
2024/03/29 02:07:23;;;;;;;0.00;0.00;;;;;;;-139.19;100.00;56970.53;5033470;28;20036;-65
2024/03/29 02:09:48;;;;;;;0.00;0.00;;;;;;;-139.19;100.00;56970.53;5033465;28;20025;-64
2024/03/29 02:12:14;;;;;;;0.15;0.15;;;;;;;-139.19;100.00;56970.53;5033375;28;20071;-65
2024/03/29 02:14:40;;;;;;;0.10;0.10;;;;;;;-139.19;100.00;56970.53;5033406;28;20053;-64
2024/03/29 02:17:06;;;;;;;0.20;0.20;;;;;;;-139.19;100.00;56970.53;5033296;28;20025;-64
2024/03/29 02:19:31;;;;;;;0.28;0.28;;;;;;;-139.19;100.00;56970.53;5034445;28;20044;-64
2024/03/29 02:21:59;;;;;;;0.00;0.00;;;;;;;-139.19;100.00;56970.53;5033269;28;20065;-65
2024/03/29 02:24:24;;;;;;;0.00;0.00;;;;;;;-139.19;100.00;56970.53;5030944;28;20029;-65
2024/03/29 02:26:50;;;;;;;0.00;0.00;;;;;;;-139.19;100.00;56970.53;5044957;28;20052;-64
2024/03/29 02:29:15;;;;;;;0.20;0.10;;;;;;;-139.19;100.00;56970.53;5051453;28;20107;-64
2024/03/29 02:31:41;;;;;;;0.00;0.00;;;;;;;-139.19;100.00;56970.53;5045407;28;20116;-65
2024/03/29 02:34:07;;;;;;;0.50;0.30;;;;;;;-139.19;100.00;56970.53;5033271;28;20052;-64
2024/03/29 02:36:33;;;;;;;0.00;0.00;;;;;;;-139.19;100.00;56970.53;5037816;28;20017;-65
2024/03/29 02:38:58;;;;;;;0.00;0.00;;;;;;;-139.19;100.00;56970.53;5041510;28;20034;-64
2024/03/29 02:41:26;;;;;;;0.10;0.10;;;;;;;-139.19;100.00;56970.53;5033023;28;20056;-64
2024/03/29 02:43:51;;;;;;;0.00;0.00;;;;;;;-139.19;100.00;56970.53;5046890;28;20032;-64
2024/03/29 02:46:16;;;;;;;0.00;0.00;;;;;;;-139.19;100.00;56970.53;5052032;28;20033;-64
2024/03/29 02:48:42;;;;;;;0.03;0.03;;;;;;;-139.19;100.00;56970.53;5048587;28;20025;-64
2024/03/29 02:51:07;;;;;;;0.00;0.00;;;;;;;-139.19;100.00;56970.53;5039926;28;20043;-65
2024/03/29 02:53:33;;;;;;;0.30;0.30;;;;;;;-139.19;100.00;56970.53;5053445;28;20025;-64
2024/03/29 02:55:58;;;;;;;0.00;0.00;;;;;;;-139.19;100.00;56970.53;5056460;28;20032;-64
2024/03/29 02:58:23;;;;;;;0.10;0.10;;;;;;;-139.19;100.00;56970.53;5075043;28;20039;-64
2024/03/29 03:00:49;;;;;;;0.10;0.10;;;;;;;-139.19;100.00;56970.53;5076216;28;20039;-64
2024/03/29 03:03:16;;;;;;;0.00;0.00;;;;;;;-139.19;100.00;56970.53;5056640;28;20039;-64
2024/03/29 03:05:42;;;;;;;0.13;0.13;;;;;;;-139.19;100.00;56970.53;5062606;28;20027;-65
2024/03/29 03:10:59;;;;;;;0.00;0.00;;;;;;;-139.19;100.00;56970.53;5076479;28;20027;-64
2024/03/29 03:13:28;;;;;;;0.00;0.00;;;;;;;-139.19;100.00;56970.53;5053519;28;20036;-64
2024/03/29 03:15:54;;;;;;;0.00;0.00;;;;;;;-139.19;100.00;56970.53;5056738;28;20028;-62
2024/03/29 03:18:20;;;;;;;0.22;0.22;;;;;;;-139.19;100.00;56970.53;5057735;28;20496;-62
2024/03/29 03:20:57;;;;;;;0.10;0.10;;;;;;;-139.19;100.00;56970.53;5056762;28;20025;-62
2024/03/29 03:23:22;;;;;;;0.08;0.08;;;;;;;-139.19;100.00;56970.53;5056420;28;20090;-62
2024/03/29 03:26:14;;;;;;;0.20;0.20;;;;;;;-139.19;100.00;56970.53;5056361;28;20040;-62
2024/03/29 03:28:39;;;;;;;0.67;0.53;;;;;;;-139.19;100.00;56970.53;5051567;28;20106;-62
2024/03/29 03:31:05;;;;;;;0.20;0.20;;;;;;;-139.19;100.00;56970.53;5054735;28;20111;-62
2024/03/29 03:33:30;;;;;;;0.00;0.00;;;;;;;-139.19;100.00;56970.53;5056604;28;20108;-62
2024/03/29 03:35:55;;;;;;;2.65;0.35;;;;;;;-139.19;100.00;56970.53;5056560;28;20362;-62
2024/03/29 03:38:21;;;;;;;0.03;0.03;;;;;;;-139.19;100.00;56970.53;5058430;28;20020;-62
2024/03/29 03:40:46;;;;;;;0.10;0.10;;;;;;;-139.19;100.00;56970.53;5075237;28;20036;-62
2024/03/29 03:43:11;;;;;;;0.00;0.00;;;;;;;-139.19;100.00;56970.53;5075298;28;20040;-62
2024/03/29 03:45:39;;;;;;;0.10;0.10;;;;;;;-139.19;100.00;56970.53;5056864;28;20041;-62
2024/03/29 03:48:10;;;;;;;0.00;0.00;;;;;;;-139.19;100.00;56970.53;5064659;28;20495;-62
2024/03/29 03:50:35;;;;;;;0.00;0.00;;;;;;;-139.19;100.00;56970.53;5056149;28;20028;-62
2024/03/29 03:53:00;;;;;;;0.00;0.00;;;;;;;-139.19;100.00;56970.53;5055978;28;20492;-62
2024/03/29 03:55:26;;;;;;;0.00;0.00;;;;;;;-139.19;100.00;56970.53;5038214;28;20099;-62
2024/03/29 03:57:52;;;;;;;0.15;0.13;;;;;;;-139.19;100.00;56970.53;5048642;28;20041;-62
2024/03/29 04:00:22;;;;;;;0.08;0.08;;;;;;;-139.19;100.00;56970.53;5055323;28;20087;-62
2024/03/29 04:02:50;;;;;;;0.75;0.65;;;;;;;-139.19;100.00;56970.53;5055475;28;20393;-62
2024/03/29 04:05:20;;;;;;;0.10;0.10;;;;;;;-139.19;100.00;56970.53;5034866;28;20029;-62
2024/03/29 04:07:45;;;;;;;0.00;0.00;;;;;;;-139.19;100.00;56970.53;5040728;28;20054;-62
2024/03/29 04:10:11;;;;;;;0.10;0.10;;;;;;;-139.19;100.00;56970.53;5035660;28;20191;-61
2024/03/29 04:12:36;;;;;;;0.03;0.03;;;;;;;-139.19;100.00;56970.53;5035695;28;20017;-62
2024/03/29 04:15:03;;;;;;;0.08;0.08;;;;;;;-139.19;100.00;56970.53;5035612;28;20110;-62
2024/03/29 04:17:30;;;;;;;0.20;0.20;;;;;;;-139.19;100.00;56970.53;5035470;28;20150;-62
2024/03/29 04:19:56;;;;;;;0.28;0.28;;;;;;;-139.19;100.00;56970.53;5047153;28;20465;-62
2024/03/29 04:22:22;;;;;;;0.20;0.20;;;;;;;-139.19;100.00;56970.53;5035686;28;20033;-62
2024/03/29 04:24:47;;;;;;;0.20;0.20;;;;;;;-139.19;100.00;56970.53;5054807;28;20028;-62
2024/03/29 04:27:12;;;;;;;0.00;0.00;;;;;;;-139.19;100.00;56970.53;5054666;28;20120;-62
2024/03/29 04:29:38;;;;;;;0.10;0.10;;;;;;;-139.19;100.00;56970.53;5054732;28;20032;-62
2024/03/29 04:32:03;;;;;;;0.60;0.60;;;;;;;-139.19;100.00;56970.53;5054385;28;20074;-62
2024/03/29 04:34:29;;;;;;;0.00;0.00;;;;;;;-139.19;100.00;56970.53;5049582;28;20384;-62
2024/03/29 04:36:54;;;;;;;0.00;0.00;;;;;;;-139.19;100.00;56970.53;5035398;28;20021;-62
2024/03/29 04:39:19;;;;;;;1.80;0.55;;;;;;;-139.19;100.00;56970.53;5033858;28;20029;-62
2024/03/29 04:41:45;;;;;;;0.10;0.10;;;;;;;-139.19;100.00;56970.53;5048436;28;20362;-62
2024/03/29 04:44:13;;;;;;;0.15;0.15;;;;;;;-139.19;100.00;56970.53;5034948;28;20040;-62
2024/03/29 04:46:39;;;;;;;0.28;0.28;;;;;;;-139.19;100.00;56970.53;5035149;28;20504;-62
2024/03/29 04:49:04;;;;;;;0.10;0.10;;;;;;;-139.19;100.00;56970.53;5035012;28;20057;-62
2024/03/29 04:51:29;;;;;;;0.10;0.10;;;;;;;-139.19;100.00;56970.53;5034859;28;20037;-62
2024/03/29 04:53:55;;;;;;;0.15;0.15;;;;;;;-139.19;100.00;56970.53;5035112;28;20048;-62
2024/03/29 04:56:20;;;;;;;0.00;0.00;;;;;;;-139.19;100.00;56970.53;5034251;28;20492;-62
2024/03/29 04:58:46;;;;;;;0.10;0.10;;;;;;;-139.19;100.00;56970.53;5034791;28;20026;-62
2024/03/29 05:01:11;;;;;;;0.20;0.20;;;;;;;-139.19;100.00;56970.53;5035025;28;20033;-62
2024/03/29 05:03:36;;;;;;;0.15;0.15;;;;;;;-139.19;100.00;56970.53;5043037;28;20076;-62
2024/03/29 05:06:02;;;;;;;0.10;0.10;;;;;;;-139.19;100.00;56970.53;5053819;28;20040;-62
2024/03/29 05:08:27;;;;;;;0.00;0.00;;;;;;;-139.19;100.00;56970.53;5048401;28;20036;-62
2024/03/29 05:10:53;;;;;;;0.15;0.15;;;;;;;-139.19;100.00;56970.53;5034652;28;20388;-62
2024/03/29 05:13:19;;;;;;;0.10;0.10;;;;;;;-139.19;100.00;56970.53;5042468;28;20075;-62
2024/03/29 05:15:45;;;;;;;0.13;0.13;;;;;;;-139.19;100.00;56970.53;5053185;28;20021;-62
2024/03/29 05:18:10;;;;;;;0.10;0.10;;;;;;;-139.19;100.00;56970.53;5053504;28;20078;-62
2024/03/29 05:20:36;;;;;;;0.05;0.05;;;;;;;-139.19;100.00;56970.53;5053732;28;20025;-62
2024/03/29 05:23:01;;;;;;;0.10;0.10;;;;;;;-139.19;100.00;56970.53;5053664;28;20023;-62
2024/03/29 05:25:27;;;;;;;0.10;0.10;;;;;;;-139.19;100.00;56970.53;5053641;28;20485;-62
2024/03/29 05:27:52;;;;;;;0.08;0.08;;;;;;;-139.19;100.00;56970.53;5053756;28;20481;-62
2024/03/29 05:30:18;;;;;;;0.80;0.40;;;;;;;-139.19;100.00;56970.53;5036821;28;20065;-62
2024/03/29 05:32:44;;;;;;;0.10;0.10;;;;;;;-139.19;100.00;56970.53;5042831;28;20047;-62
2024/03/29 05:35:09;;;;;;;0.00;0.00;;;;;;;-139.19;100.00;56970.53;5038508;28;20036;-64
2024/03/29 05:37:36;;;;;;;0.10;0.10;;;;;;;-139.19;100.00;56970.53;5053078;28;20033;-64
2024/03/29 05:40:04;;;;;;;0.10;0.10;;;;;;;-139.19;100.00;56970.53;5036260;28;20445;-64
2024/03/29 05:42:31;;;;;;;0.00;0.00;;;;;;;-139.19;100.00;56970.53;5031794;28;20028;-64
2024/03/29 05:44:56;;;;;;;0.00;0.00;;;;;;;-139.19;100.00;56970.53;5032015;28;20029;-64
2024/03/29 05:47:21;;;;;;;0.20;0.20;;;;;;;-139.19;100.00;56970.53;5029961;28;20031;-64
2024/03/29 05:49:48;;;;;;;0.00;0.00;;;;;;;-139.19;100.00;56970.53;5033291;28;20033;-65
2024/03/29 05:52:13;;;;;;;0.00;0.00;;;;;;;-139.19;100.00;56970.53;5030476;28;20033;-64
2024/03/29 05:54:40;;;;;;;0.00;0.00;;;;;;;-139.19;100.00;56970.53;5030970;28;20033;-64
2024/03/29 05:57:06;;;;;;;0.20;0.20;;;;;;;-139.19;100.00;56970.53;5033480;28;20625;-64
2024/03/29 05:59:32;;;;;;;0.10;0.10;;;;;;;-139.19;100.00;56970.53;5013549;28;20036;-64
2024/03/29 06:01:57;;;;;;;0.10;0.10;;;;;;;-139.19;100.00;56970.53;5014554;28;20385;-64
2024/03/29 06:04:29;;;;;;;0.00;0.00;;;;;;;-139.19;100.00;56970.53;5012761;28;20123;-64
2024/03/29 06:06:54;;;;;;;0.00;0.00;;;;;;;-139.19;100.00;56970.53;5013503;28;20022;-64
2024/03/29 06:09:20;;;;;;;0.17;0.17;;;;;;;-139.19;100.00;56970.53;5012761;28;20056;-64
2024/03/29 06:11:45;;;;;;;0.00;0.00;;;;;;;-139.19;100.00;56970.53;5013568;28;20034;-64
2024/03/29 06:19:19;;;;;;;0.95;0.57;;;;;;;-139.19;100.00;56970.53;5012921;28;20028;-65
2024/03/29 06:21:45;;;;;;;0.10;0.10;;;;;;;-139.19;100.00;56970.53;5020843;28;20022;-64
2024/03/29 06:24:14;;;;;;;0.00;0.00;;;;;;;-139.19;100.00;56970.53;5014479;28;20021;-64
2024/03/29 06:26:41;;;;;;;0.00;0.00;;;;;;;-139.19;100.00;56970.53;5023879;28;20155;-64
2024/03/29 06:29:09;;;;;;;0.00;0.00;;;;;;;-139.19;100.00;56970.53;5014401;28;20405;-64
2024/03/29 06:31:34;;;;;;;2.15;0.60;;;;;;;-139.19;100.00;56970.53;5013268;28;20026;-64
2024/03/29 06:33:59;;;;;;;0.10;0.10;;;;;;;-139.19;100.00;56970.53;5021069;28;20031;-64
2024/03/29 06:36:25;;;;;;;0.00;0.00;;;;;;;-139.19;100.00;56970.53;5020377;28;20036;-64
2024/03/29 06:38:51;;;;;;;0.10;0.10;;;;;;;-139.19;100.00;56970.53;5012288;28;20144;-64
2024/03/29 06:41:16;;;;;;;0.00;0.00;;;;;;;-139.19;100.00;56970.53;5012530;28;20041;-64
2024/03/29 06:43:44;;;;;;;0.00;0.00;;;;;;;-139.19;100.00;56970.53;5020972;28;20438;-65
2024/03/29 06:46:10;;;;;;;0.00;0.00;;;;;;;-139.19;100.00;56970.53;5012684;28;20038;-64
2024/03/29 06:48:35;;;;;;;0.75;0.50;;;;;;;-139.19;100.00;56970.53;5012920;28;20533;-64
2024/03/29 06:51:02;;;;;;;0.20;0.20;;;;;;;-139.19;100.00;56970.53;5012878;28;20101;-64
2024/03/29 06:53:28;;;;;;;0.10;0.10;;;;;;;-139.19;100.00;56970.53;5012542;28;20049;-64
2024/03/29 06:55:56;;;;;;;0.52;0.45;;;;;;;-139.19;100.00;56970.53;5015551;28;20108;-64
2024/03/29 06:58:21;;;;;;;0.10;0.10;;;;;;;-139.19;100.00;56970.53;5013191;28;20054;-64
2024/03/29 07:00:49;;;;;;;0.10;0.10;;;;;;;-139.19;100.00;56970.53;5030502;28;20396;-74
2024/03/29 07:03:14;;;;;;;0.10;0.10;;;;;;;-139.19;100.00;56970.53;5030871;28;20032;-74
2024/03/29 07:05:40;;;;;;;0.10;0.10;;;;;;;-139.19;100.00;56970.53;5032330;28;20025;-64
2024/03/29 07:08:06;;;;;;;0.20;0.10;;;;;;;-139.19;100.00;56970.53;5032152;28;20025;-64
2024/03/29 07:10:31;;;;;;;0.00;0.00;;;;;;;-139.19;100.00;56970.53;5031826;28;20047;-64
2024/03/29 07:12:56;;;;;;;0.10;0.10;;;;;;;-139.19;100.00;56970.53;5031468;28;20025;-65
2024/03/29 07:15:22;;;;;;;0.43;0.40;;;;;;;-139.19;100.00;56970.53;5024049;28;20053;-65
2024/03/29 07:17:56;;;;;;;0.30;0.30;;;;;;;-139.19;100.00;56970.53;5032247;28;20179;-65
2024/03/29 07:20:27;;;;;;;0.00;0.00;;;;;;;-139.19;100.00;56970.53;5031820;28;20509;-64
2024/03/29 07:22:53;;;;;;;0.00;0.00;;;;;;;-139.19;100.00;56970.53;5012689;28;20514;-65
2024/03/29 07:25:18;;;;;;;0.10;0.10;;;;;;;-139.19;100.00;56970.53;5023059;28;20061;-64
2024/03/29 07:27:44;;;;;;;0.10;0.10;;;;;;;-139.19;100.00;56970.53;5029971;28;20120;-64
2024/03/29 07:30:10;;;;;;;0.10;0.10;;;;;;;-139.19;100.00;56970.53;5023882;28;20136;-64
2024/03/29 07:32:36;;;;;;;0.00;0.00;;;;;;;-139.19;100.00;56970.53;5032367;28;20017;-64
2024/03/29 07:35:02;;;;;;;0.03;0.03;;;;;;;-139.19;100.00;56970.53;5023502;28;20521;-64
2024/03/29 07:37:28;;;;;;;0.00;0.00;;;;;;;-139.19;100.00;56970.53;5032269;28;20465;-64
2024/03/29 07:39:53;;;;;;;0.00;0.00;;;;;;;-139.19;100.00;56970.53;5033481;28;20030;-65
2024/03/29 07:42:19;;;;;;;0.00;0.00;;;;;;;-139.19;100.00;56970.53;5034385;28;20462;-64
2024/03/29 07:44:44;;;;;;;0.10;0.10;;;;;;;-139.19;100.00;56970.53;5027996;28;20025;-65
2024/03/29 07:47:13;;;;;;;0.30;0.30;;;;;;;-139.19;100.00;56970.53;5035546;28;20029;-65
2024/03/29 07:49:38;;;;;;;0.00;0.00;;;;;;;-139.19;100.00;56970.53;5034017;28;20063;-64
2024/03/29 07:52:05;;;;;;;0.10;0.10;;;;;;;-139.19;100.00;56970.53;5035150;28;20104;-65
2024/03/29 07:54:34;;;;;;;0.20;0.20;;;;;;;-139.19;100.00;56970.53;5036379;28;20112;-62
2024/03/29 07:57:01;;;;;;;0.00;0.00;;;;;;;-139.19;100.00;56970.53;5032908;28;20065;-61
2024/03/29 07:59:26;;;;;;;0.00;0.00;;;;;;;-139.19;100.00;56970.53;5022802;28;20477;-62
2024/03/29 08:01:52;;;;;;;0.00;0.00;;;;;;;-139.19;100.00;56970.53;5023162;28;20036;-62
2024/03/29 08:04:17;;;;;;;0.08;0.08;;;;;;;-139.19;100.00;56970.53;5016205;28;20033;-61
2024/03/29 08:06:43;;;;;;;0.10;0.10;;;;;;;-139.19;100.00;56970.53;5020663;28;20080;-61
2024/03/29 08:09:09;;;;;;;0.10;0.10;;;;;;;-139.19;100.00;56970.53;5017418;28;20038;-62
2024/03/29 08:11:35;;;;;;;0.10;0.10;;;;;;;-139.19;100.00;56970.53;5018399;28;20022;-61
2024/03/29 08:14:01;;;;;;;0.20;0.20;;;;;;;-139.19;100.00;56970.53;5020126;28;20088;-61
2024/03/29 08:16:26;;;;;;;0.47;0.32;;;;;;;-139.19;100.00;56970.53;5032014;28;20061;-61
2024/03/29 08:18:51;;;;;;;0.10;0.10;;;;;;;-139.19;100.00;56970.53;5015836;28;20026;-62
2024/03/29 08:21:17;;;;;;;0.20;0.20;;;;;;;-139.19;100.00;56970.53;5023590;28;20033;-61
2024/03/29 08:23:46;;;;;;;0.00;0.00;;;;;;;-139.19;100.00;56970.53;5022371;28;20017;-62
2024/03/29 08:26:12;;;;;;;0.73;0.47;;;;;;;-139.19;100.00;56970.53;5022104;28;20025;-61
2024/03/29 08:28:37;;;;;;;0.15;0.15;;;;;;;-139.19;100.00;56970.53;5034914;28;20533;-62
2024/03/29 08:31:05;;;;;;;0.20;0.20;;;;;;;-139.19;100.00;56970.53;5018886;28;20101;-61
2024/03/29 08:33:31;;;;;;;0.10;0.10;;;;;;;-139.19;100.00;56970.53;4997870;28;20441;-62
2024/03/29 08:35:57;;;;;;;0.00;0.00;;;;;;;-139.19;100.00;56970.53;5015583;28;20109;-62
2024/03/29 08:38:23;;;;;;;0.10;0.10;;;;;;;-139.19;100.00;56970.53;5015214;28;20096;-62
2024/03/29 08:40:49;;;;;;;0.50;0.43;;;;;;;-139.19;100.00;56970.53;5023152;28;20470;-62
2024/03/29 08:43:18;;;;;;;0.00;0.00;;;;;;;-139.19;100.00;56970.53;5023297;28;20036;-62
2024/03/29 08:45:46;;;;;;;0.40;0.40;;;;;;;-139.19;100.00;56970.53;5015270;28;20033;-61
2024/03/29 08:48:12;;;;;;;0.10;0.10;;;;;;;-139.19;100.00;56970.53;5016085;28;20026;-62
2024/03/29 08:50:37;;;;;;;0.05;0.05;;;;;;;-139.19;100.00;56970.53;5015236;28;20033;-61
2024/03/29 08:53:03;;;;;;;0.00;0.00;;;;;;;-139.19;100.00;56970.53;5027343;28;20063;-62
2024/03/29 08:55:33;;;;;;;0.00;0.00;;;;;;;-139.19;100.00;56970.53;5028918;28;20388;-62
2024/03/29 08:58:00;;;;;;;0.10;0.10;;;;;;;-139.19;100.00;56970.53;5038052;28;20044;-62
2024/03/29 09:00:26;;;;;;;0.00;0.00;;;;;;;-139.19;100.00;56970.53;5042214;28;20021;-62
2024/03/29 09:02:52;;;;;;;0.20;0.20;;;;;;;-139.19;100.00;56970.53;5047563;28;20123;-62
2024/03/29 09:05:17;;;;;;;0.10;0.10;;;;;;;-139.19;100.00;56970.53;5053755;28;20119;-62
2024/03/29 09:07:43;;;;;;;0.85;0.47;;;;;;;-139.19;100.00;56970.53;5053907;28;20047;-62
2024/03/29 09:10:08;;;;;;;0.00;0.00;;;;;;;-139.19;100.00;56970.53;5038742;28;20033;-62
2024/03/29 09:12:34;;;;;;;0.10;0.10;;;;;;;-139.19;100.00;56970.53;5040229;28;20037;-62
2024/03/29 09:15:00;;;;;;;0.00;0.00;;;;;;;-139.19;100.00;56970.53;5032851;28;20036;-62
2024/03/29 09:17:26;;;;;;;0.70;0.57;;;;;;;-139.19;100.00;56970.53;5034695;28;20374;-62
2024/03/29 09:19:52;;;;;;;0.10;0.10;;;;;;;-139.19;100.00;56970.53;5034510;28;20378;-61
2024/03/29 09:22:18;;;;;;;0.00;0.00;;;;;;;-139.19;100.00;56970.53;5021149;28;20033;-61
2024/03/29 09:24:43;;;;;;;0.10;0.10;;;;;;;-139.19;100.00;56970.53;5042855;28;20392;-62
2024/03/29 09:27:08;;;;;;;0.00;0.00;;;;;;;-139.19;100.00;56970.53;5043577;28;20064;-62
2024/03/29 09:29:34;;;;;;;0.00;0.00;;;;;;;-139.19;100.00;56970.53;5034197;28;20029;-62
2024/03/29 09:32:01;;;;;;;0.00;0.00;;;;;;;-139.19;100.00;56970.53;5034111;28;20033;-62
2024/03/29 09:34:27;;;;;;;0.05;0.05;;;;;;;-139.19;100.00;56970.53;5036992;28;20131;-62
2024/03/29 09:36:52;;;;;;;3.92;0.32;;;;;;;-139.19;100.00;56970.53;5035456;28;20024;-61
2024/03/29 09:39:17;;;;;;;0.05;0.05;;;;;;;-139.19;100.00;56970.53;5031898;28;20212;-62
2024/03/29 09:41:45;;;;;;;0.43;0.43;;;;;;;-139.19;100.00;56970.53;5033776;28;20040;-61
2024/03/29 09:44:11;;;;;;;0.00;0.00;;;;;;;-139.19;100.00;56970.53;5039860;28;20473;-62
2024/03/29 09:46:39;;;;;;;0.13;0.13;;;;;;;-139.19;100.00;56970.53;5053111;28;20021;-62
2024/03/29 09:49:06;;;;;;;0.10;0.10;;;;;;;-139.19;100.00;56970.53;5027984;28;20024;-62
2024/03/29 09:51:39;;;;;;;0.10;0.10;;;;;;;-139.19;100.00;56970.53;5042146;28;20465;-62
2024/03/29 09:54:08;;;;;;;0.10;0.10;;;;;;;-139.19;100.00;56970.53;5043805;28;20049;-62
2024/03/29 09:56:40;;;;;;;0.00;0.00;;;;;;;-139.19;100.00;56970.53;5035286;28;20049;-62
2024/03/29 09:59:12;;;;;;;0.00;0.00;;;;;;;-139.19;100.00;56970.53;5051110;28;20037;-61
2024/03/29 10:01:37;;;;;;;;;;;;;;;-139.19;100.00;56970.53;5053044;28;20033;-61
2024/03/29 10:04:04;;;;;;;0.10;0.10;;;;;;;-139.19;100.00;56970.53;5043619;28;19919;-62
2024/03/29 10:06:30;;;;;;;0.15;0.15;;;;;;;-139.19;100.00;56970.53;5033269;28;20033;-61
2024/03/29 10:08:58;;;;;;;0.28;0.28;;;;;;;-139.19;100.00;56970.53;5033246;28;20090;-62
2024/03/29 10:11:24;;;;;;;0.10;0.10;;;;;;;-139.19;100.00;56970.53;5030914;28;20021;-61
2024/03/29 10:13:50;;;;;;;0.00;0.00;;;;;;;-139.19;100.00;56970.53;5044857;28;20108;-61
2024/03/29 10:16:21;;;;;;;0.00;0.00;;;;;;;-139.19;100.00;56970.53;5039876;28;20112;-65
2024/03/29 10:18:47;;;;;;;0.10;0.10;;;;;;;-139.19;100.00;56970.53;5033468;28;20052;-64
2024/03/29 10:21:13;;;;;;;2.38;0.60;;;;;;;-139.19;100.00;56970.53;5045768;28;20037;-64
2024/03/29 10:23:40;;;;;;;0.13;0.13;;;;;;;-139.19;100.00;56970.53;5036981;28;20079;-65
2024/03/29 10:26:05;;;;;;;0.13;0.13;;;;;;;-139.19;100.00;56970.53;5051542;28;20029;-64
2024/03/29 10:28:35;;;;;;;0.10;0.10;;;;;;;-139.19;100.00;56970.53;5052466;28;20089;-64
2024/03/29 10:31:05;;;;;;;0.00;0.00;;;;;;;-139.19;100.00;56970.53;5052238;28;20021;-64
2024/03/29 10:33:31;;;;;;;0.10;0.10;;;;;;;-139.19;100.00;56970.53;5048989;28;20022;-64
2024/03/29 10:35:59;;;;;;;0.00;0.00;;;;;;;-139.19;100.00;56970.53;5033160;28;20032;-64
2024/03/29 10:38:28;;;;;;;2.75;0.47;;;;;;;-139.19;100.00;56970.53;5049538;28;20385;-64
2024/03/29 10:40:54;;;;;;;0.85;0.52;;;;;;;-139.19;100.00;56970.53;5039088;28;20473;-64
2024/03/29 10:43:20;;;;;;;0.10;0.10;;;;;;;-139.19;100.00;56970.53;5032506;28;20036;-64
2024/03/29 10:45:47;;;;;;;0.13;0.13;;;;;;;-139.19;100.00;56970.53;5036779;28;20162;-64
2024/03/29 10:48:15;;;;;;;0.20;0.20;;;;;;;-139.19;100.00;56970.53;5052544;28;20052;-64
2024/03/29 10:50:42;;;;;;;0.20;0.20;;;;;;;-139.19;100.00;56970.53;5050342;28;20432;-64
2024/03/29 10:53:08;;;;;;;0.10;0.10;;;;;;;-139.19;100.00;56970.53;5033133;28;20393;-64
2024/03/29 10:55:34;;;;;;;0.00;0.00;;;;;;;-139.19;100.00;56970.53;5040483;28;20417;-64
2024/03/29 10:58:01;;;;;;;0.10;0.10;;;;;;;-139.19;100.00;56970.53;5062715;28;20088;-64
2024/03/29 11:00:29;;;;;;;0.08;0.08;;;;;;;-139.19;100.00;56970.53;5072457;28;20103;-64
2024/03/29 11:03:09;;;;;;;0.08;0.08;;;;;;;-139.19;100.00;56970.53;5055300;28;20027;-64
2024/03/29 11:05:35;;;;;;;0.22;0.22;;;;;;;-139.19;100.00;56970.53;5055988;28;20115;-64
2024/03/29 11:08:03;;;;;;;0.45;0.45;;;;;;;-139.19;100.00;56970.53;5063791;28;20029;-63
2024/03/29 11:10:38;;;;;;;0.00;0.00;;;;;;;-139.19;100.00;56970.53;5063465;28;20037;-64
2024/03/29 11:13:19;;;;;;;0.10;0.10;;;;;;;-139.19;100.00;56970.53;5060694;28;20033;-63